VOBZ/VGA METAR and TAF weather

Enter ICAO airport designator
Station Type Date Time Source
VOBZ METAR 2019/08/19 07:30 UTC NOAA

VOBZ 190730Z 27004KT 6000 FEW020 SCT100 34/25 Q1005 NOSIG


Station Type Date Time Source
VOBZ Decoded METAR 2019/08/19 07:30 UTC NOAA

Station name not available
Aug 19, 2019 - 03:30 AM EDT / 2019.08.19 0730 UTC
Wind: from the W (270 degrees) at 5 MPH (4 KT):0
Visibility: 3 mile(s):0
Sky conditions: partly cloudy
Temperature: 93 F (34 C)
Heat index: 106.7 F (41.5 C):1
Dew Point: 77 F (25 C)
Relative Humidity: 59%
Pressure (altimeter): 29.68 in. Hg (1005 hPa)
ob: VOBZ 190730Z 27004KT 6000 FEW020 SCT100 34/25 Q1005 NOSIG
cycle: 7

Station Type Date Time Source
VOBZ TAF 2019/08/10 09:00 UTC NOAA

TAF VOBZ 100800Z 1009/1018 26012KT 6000 SCT015 SCT100
TEMPO 1010/1014 25015KT 3000 RA SCT010 FEW030CB BKN100

Example: see airport list